createdAt,value
2023-05-03T00:00:10.091Z,17.1979
2023-05-03T00:01:13.971Z,17.3065
2023-05-03T00:02:17.912Z,17.4202
2023-05-03T00:03:21.824Z,17.2960
2023-05-03T00:04:25.694Z,17.0177
2023-05-03T00:05:29.691Z,17.0348
2023-05-03T00:06:33.632Z,17.1852
2023-05-03T00:07:37.503Z,17.3152
2023-05-03T00:08:41.417Z,17.4289
2023-05-03T00:09:45.506Z,17.3779
2023-05-03T00:10:49.424Z,17.0464
2023-05-03T00:11:53.325Z,16.9246
2023-05-03T00:12:58.317Z,17.0441
2023-05-03T00:14:02.200Z,17.1981
2023-05-03T00:15:06.077Z,17.3187
2023-05-03T00:16:09.968Z,17.3804
2023-05-03T00:17:13.958Z,17.1601
2023-05-03T00:18:17.941Z,17.1038
2023-05-03T00:19:31.448Z,17.1839
2023-05-03T00:20:26.529Z,17.2884
2023-05-03T00:21:30.413Z,17.3977
2023-05-03T00:22:34.306Z,17.4200
2023-05-03T00:23:38.194Z,17.1053
2023-05-03T00:24:42.083Z,16.9500
2023-05-03T00:25:42.359Z,17.0611
2023-05-03T00:26:46.265Z,17.1997
2023-05-03T00:27:50.152Z,17.3410
2023-05-03T00:28:54.050Z,17.4391
2023-05-03T00:29:58.021Z,17.2130
2023-05-03T00:31:01.928Z,16.9758
2023-05-03T00:32:05.797Z,17.0003
2023-05-03T00:33:09.732Z,17.1396
2023-05-03T00:34:13.648Z,17.2673
2023-05-03T00:35:17.771Z,17.3782
2023-05-03T00:36:21.667Z,17.2491
2023-05-03T00:37:25.551Z,17.0299
2023-05-03T00:38:29.427Z,17.0673
2023-05-03T00:39:33.307Z,17.1806
2023-05-03T00:40:37.210Z,17.2978
2023-05-03T00:41:41.102Z,17.4162
2023-05-03T00:42:45.000Z,17.2851
2023-05-03T00:43:48.883Z,17.0070
2023-05-03T00:44:54.081Z,17.0319
2023-05-03T00:45:59.349Z,17.1548
2023-05-03T00:46:58.824Z,17.2726
2023-05-03T00:48:02.742Z,17.3904
2023-05-03T00:49:06.651Z,17.3285
2023-05-03T00:50:10.583Z,17.0755
2023-05-03T00:51:14.490Z,17.0461
2023-05-03T00:52:18.361Z,17.1327
2023-05-03T00:53:22.253Z,17.2518
2023-05-03T00:54:26.180Z,17.3748
2023-05-03T00:55:30.043Z,17.3354
2023-05-03T00:56:47.844Z,17.0613
2023-05-03T00:57:34.093Z,17.0206
2023-05-03T00:58:37.982Z,17.1641
2023-05-03T00:59:41.881Z,17.2934
2023-05-03T01:00:45.776Z,17.4162
2023-05-03T01:01:49.691Z,17.4209
2023-05-03T01:02:53.567Z,17.1421
2023-05-03T01:03:57.514Z,17.0321
2023-05-03T01:05:01.517Z,17.1080
2023-05-03T01:06:05.469Z,17.2086
2023-05-03T01:07:09.326Z,17.3234
2023-05-03T01:08:13.233Z,17.3599
2023-05-03T01:09:17.122Z,17.1294
2023-05-03T01:10:21.000Z,17.0508
2023-05-03T01:11:24.881Z,17.1231
2023-05-03T01:12:28.798Z,17.2257
2023-05-03T01:13:32.672Z,17.3397
2023-05-03T01:14:36.580Z,17.3695
2023-05-03T01:15:40.498Z,17.1218
2023-05-03T01:16:44.606Z,17.0490
2023-05-03T01:17:48.563Z,17.1514
2023-05-03T01:18:52.457Z,17.2700
2023-05-03T01:19:56.495Z,17.3837
2023-05-03T01:21:00.391Z,17.3944
2023-05-03T01:22:04.255Z,17.1022
2023-05-03T01:23:08.154Z,16.9703
2023-05-03T01:24:12.038Z,17.1038
2023-05-03T01:25:15.966Z,17.2279
2023-05-03T01:26:19.850Z,17.3568
2023-05-03T01:27:24.061Z,17.4531
2023-05-03T01:28:27.967Z,17.2133
2023-05-03T01:29:31.906Z,17.0099
2023-05-03T01:30:35.794Z,17.0700
2023-05-03T01:31:39.771Z,17.1868
2023-05-03T01:32:43.658Z,17.2967
2023-05-03T01:33:47.517Z,17.3862
2023-05-03T01:34:51.389Z,17.2182
2023-05-03T01:35:55.300Z,17.0174
2023-05-03T01:36:59.229Z,17.1004
2023-05-03T01:38:03.128Z,17.2302
2023-05-03T01:39:07.000Z,17.3617
2023-05-03T01:40:11.018Z,17.4632
2023-05-03T01:41:14.944Z,17.2867
2023-05-03T01:42:18.851Z,17.0032
2023-05-03T01:43:22.772Z,16.9954
2023-05-03T01:44:26.676Z,17.1534
2023-05-03T01:45:30.640Z,17.2945
2023-05-03T01:46:34.557Z,17.4113
2023-05-03T01:47:38.324Z,17.3534
2023-05-03T01:48:42.223Z,17.0571
2023-05-03T01:49:46.127Z,16.9767
2023-05-03T01:50:50.013Z,17.1062
2023-05-03T01:51:53.926Z,17.2208
2023-05-03T01:52:57.949Z,17.3526
2023-05-03T01:54:01.883Z,17.3835
2023-05-03T01:55:05.769Z,17.1338
2023-05-03T01:56:09.676Z,17.0388
2023-05-03T01:57:13.604Z,17.1314
2023-05-03T01:58:17.498Z,17.2540
2023-05-03T01:59:21.388Z,17.3606
2023-05-03T02:00:25.311Z,17.4040
2023-05-03T02:01:29.216Z,17.1296
2023-05-03T02:02:33.150Z,16.9872
2023-05-03T02:03:36.998Z,17.1038
2023-05-03T02:04:41.232Z,17.2555
2023-05-03T02:05:45.185Z,17.3815
2023-05-03T02:06:49.139Z,17.4600
2023-05-03T02:07:53.294Z,17.2266
2023-05-03T02:08:57.173Z,17.0030
2023-05-03T02:10:01.285Z,17.0426
2023-05-03T02:11:02.348Z,17.1731
2023-05-03T02:12:06.280Z,17.2709
2023-05-03T02:13:10.148Z,17.3773
2023-05-03T02:14:14.034Z,17.2509
2023-05-03T02:15:17.945Z,17.0784
2023-05-03T02:16:21.861Z,17.0947
2023-05-03T02:17:25.740Z,17.1959
2023-05-03T02:18:29.628Z,17.3083
2023-05-03T02:19:33.502Z,17.4040
2023-05-03T02:20:37.397Z,17.2406
2023-05-03T02:21:41.307Z,17.0312
2023-05-03T02:22:45.230Z,17.0878
2023-05-03T02:23:49.166Z,17.2253
2023-05-03T02:24:53.030Z,17.3472
2023-05-03T02:25:56.920Z,17.4534
2023-05-03T02:27:00.828Z,17.3085
2023-05-03T02:28:04.756Z,17.0052
2023-05-03T02:29:08.645Z,16.9870
2023-05-03T02:30:12.816Z,17.1187
2023-05-03T02:31:16.775Z,17.2549
2023-05-03T02:32:20.936Z,17.3764
2023-05-03T02:33:24.852Z,17.3377
2023-05-03T02:34:28.751Z,17.0802
2023-05-03T02:35:32.662Z,17.0648
2023-05-03T02:36:36.607Z,17.1679
2023-05-03T02:37:40.513Z,17.2638
2023-05-03T02:38:44.413Z,17.3759
2023-05-03T02:39:48.316Z,17.3532
2023-05-03T02:40:52.216Z,17.1300
2023-05-03T02:41:56.089Z,17.1051
2023-05-03T02:43:00.038Z,17.1817
2023-05-03T02:44:03.941Z,17.2954
2023-05-03T02:45:07.849Z,17.4207
2023-05-03T02:46:11.773Z,17.3931
2023-05-03T02:47:15.908Z,17.0559
2023-05-03T02:48:19.801Z,16.9362
2023-05-03T02:49:23.743Z,17.0655
2023-05-03T02:50:27.646Z,17.2064
2023-05-03T02:51:31.559Z,17.3192
2023-05-03T02:52:35.478Z,17.3953
2023-05-03T02:53:39.366Z,17.1585
2023-05-03T02:54:43.504Z,17.0061
2023-05-03T02:55:47.425Z,17.1131
2023-05-03T02:56:51.341Z,17.2660
2023-05-03T02:57:55.261Z,17.3737
2023-05-03T02:58:59.174Z,17.4583
2023-05-03T03:00:03.277Z,17.2540
2023-05-03T03:01:07.473Z,16.9870
2023-05-03T03:02:11.366Z,17.0206
2023-05-03T03:03:15.336Z,17.1703
2023-05-03T03:04:19.273Z,17.2905
2023-05-03T03:05:23.212Z,17.3960
2023-05-03T03:06:27.123Z,17.2769
2023-05-03T03:07:31.019Z,17.0464
2023-05-03T03:08:34.945Z,17.0542
2023-05-03T03:09:38.880Z,17.1614
2023-05-03T03:10:42.789Z,17.2698
2023-05-03T03:11:46.693Z,17.3897
2023-05-03T03:12:50.893Z,17.3103
2023-05-03T03:13:54.752Z,17.0684
2023-05-03T03:14:58.698Z,17.0842
2023-05-03T03:16:02.614Z,17.1799
2023-05-03T03:17:06.483Z,17.2925
2023-05-03T03:18:10.418Z,17.4173
2023-05-03T03:19:14.316Z,17.3201
2023-05-03T03:20:18.240Z,17.0348
2023-05-03T03:21:22.175Z,17.0466
2023-05-03T03:22:26.086Z,17.1752
2023-05-03T03:23:30.004Z,17.2983
2023-05-03T03:24:33.928Z,17.4162
2023-05-03T03:25:38.017Z,17.3975
2023-05-03T03:26:41.935Z,17.0797
2023-05-03T03:27:45.829Z,16.9809
2023-05-03T03:28:49.743Z,17.1049
2023-05-03T03:29:53.655Z,17.2277
2023-05-03T03:30:57.554Z,17.3383
2023-05-03T03:32:01.490Z,17.3917
2023-05-03T03:33:05.427Z,17.1372
2023-05-03T03:34:09.316Z,17.0045
2023-05-03T03:35:13.205Z,17.0935
2023-05-03T03:36:17.091Z,17.2037
2023-05-03T03:37:20.993Z,17.3143
2023-05-03T03:38:24.892Z,17.3782
2023-05-03T03:39:28.779Z,17.1507
2023-05-03T03:40:32.669Z,17.0617
2023-05-03T03:41:36.570Z,17.1312
2023-05-03T03:42:40.669Z,17.2353
2023-05-03T03:43:44.583Z,17.3443
2023-05-03T03:44:48.471Z,17.4055
2023-05-03T03:45:52.390Z,17.1745
2023-05-03T03:46:56.314Z,17.0559
2023-05-03T03:48:00.231Z,17.1265
2023-05-03T03:49:04.120Z,17.2320
2023-05-03T03:50:08.051Z,17.3474
2023-05-03T03:51:11.983Z,17.4024
2023-05-03T03:52:23.513Z,17.1538
2023-05-03T03:53:27.421Z,16.9852
2023-05-03T03:54:31.309Z,17.0737
2023-05-03T03:55:35.226Z,17.1866
2023-05-03T03:56:39.188Z,17.3063
2023-05-03T03:57:43.112Z,17.3770
2023-05-03T03:58:46.994Z,17.1854
2023-05-03T03:59:50.889Z,17.0822
2023-05-03T04:00:54.779Z,17.1734
2023-05-03T04:01:58.710Z,17.3007
2023-05-03T04:03:03.603Z,17.4396
2023-05-03T04:04:03.865Z,17.4758
2023-05-03T04:05:07.768Z,17.2026
2023-05-03T04:06:11.659Z,16.9507
2023-05-03T04:07:15.544Z,16.9794
2023-05-03T04:08:19.434Z,17.1614
2023-05-03T04:09:30.190Z,17.3096
2023-05-03T04:10:23.478Z,17.4316
2023-05-03T04:11:27.365Z,17.3245
2023-05-03T04:12:27.585Z,17.0153
2023-05-03T04:13:31.482Z,16.9729
2023-05-03T04:14:35.376Z,17.1018
2023-05-03T04:15:39.280Z,17.2217
2023-05-03T04:16:43.235Z,17.3548
2023-05-03T04:17:47.125Z,17.3363
2023-05-03T04:18:51.039Z,17.1107
2023-05-03T04:19:54.894Z,17.0902
2023-05-03T04:20:58.782Z,17.1979
2023-05-03T04:22:02.715Z,17.3163
2023-05-03T04:23:06.592Z,17.4349
2023-05-03T04:24:10.503Z,17.4271
2023-05-03T04:25:14.421Z,17.1147
2023-05-03T04:26:30.746Z,16.9812
2023-05-03T04:27:22.841Z,17.0844
2023-05-03T04:28:26.741Z,17.1868
2023-05-03T04:29:30.673Z,17.3112
2023-05-03T04:30:34.582Z,17.3639
2023-05-03T04:31:38.467Z,17.1360
2023-05-03T04:32:42.467Z,17.0777
2023-05-03T04:33:46.322Z,17.1690
2023-05-03T04:34:51.348Z,17.2782
2023-05-03T04:35:51.082Z,17.3949
2023-05-03T04:36:54.987Z,17.4349
2023-05-03T04:37:58.916Z,17.1603
2023-05-03T04:38:59.766Z,16.9873
2023-05-03T04:40:03.966Z,17.0755
2023-05-03T04:41:08.091Z,17.1966
2023-05-03T04:42:12.026Z,17.3232
2023-05-03T04:43:15.933Z,17.4035
2023-05-03T04:44:19.860Z,17.2195
2023-05-03T04:45:23.892Z,17.0466
2023-05-03T04:46:35.354Z,17.0784
2023-05-03T04:47:28.697Z,17.2014
2023-05-03T04:48:32.570Z,17.3018
2023-05-03T04:49:36.479Z,17.3971
2023-05-03T04:50:40.377Z,17.2090
2023-05-03T04:51:44.274Z,17.0023
2023-05-03T04:52:48.183Z,17.0702
2023-05-03T04:53:52.061Z,17.2104
2023-05-03T04:54:56.208Z,17.3514
2023-05-03T04:56:00.103Z,17.4509
2023-05-03T04:57:03.976Z,17.3016
2023-05-03T04:58:07.886Z,17.0112
2023-05-03T04:59:11.757Z,17.0068
2023-05-03T05:00:15.894Z,17.1467
2023-05-03T05:01:19.819Z,17.2965
2023-05-03T05:02:23.740Z,17.4164
2023-05-03T05:03:27.736Z,17.3639
2023-05-03T05:04:31.685Z,17.0635
2023-05-03T05:05:35.591Z,16.9999
2023-05-03T05:06:39.538Z,17.1494
2023-05-03T05:07:43.442Z,17.2885
2023-05-03T05:08:47.338Z,17.4055
2023-05-03T05:09:51.249Z,17.4267
2023-05-03T05:10:55.160Z,17.1113
2023-05-03T05:11:59.033Z,16.9420
2023-05-03T05:13:02.930Z,17.0381
2023-05-03T05:14:06.813Z,17.1768
2023-05-03T05:15:10.739Z,17.3000
2023-05-03T05:16:14.662Z,17.3924
2023-05-03T05:17:18.797Z,17.1999
2023-05-03T05:18:22.685Z,17.0199
2023-05-03T05:19:26.570Z,17.0998
2023-05-03T05:20:30.471Z,17.2342
2023-05-03T05:21:34.390Z,17.3441
2023-05-03T05:22:38.581Z,17.4353
2023-05-03T05:23:42.466Z,17.2582
2023-05-03T05:24:46.631Z,16.9754
2023-05-03T05:25:50.512Z,16.9867
2023-05-03T05:26:54.388Z,17.1514
2023-05-03T05:27:58.304Z,17.2818
2023-05-03T05:29:02.184Z,17.4066
2023-05-03T05:30:06.154Z,17.3267
2023-05-03T05:31:10.132Z,17.0266
2023-05-03T05:32:13.975Z,16.9856
2023-05-03T05:33:19.096Z,17.0862
2023-05-03T05:34:17.916Z,17.1988
2023-05-03T05:35:21.829Z,17.3094
2023-05-03T05:36:25.839Z,17.3305
2023-05-03T05:37:30.024Z,17.1294
2023-05-03T05:38:33.894Z,17.1100
2023-05-03T05:39:37.801Z,17.1908
2023-05-03T05:40:41.891Z,17.3036
2023-05-03T05:41:45.784Z,17.4178
2023-05-03T05:42:49.709Z,17.3659
2023-05-03T05:43:53.603Z,17.0760
2023-05-03T05:44:57.527Z,17.0279
2023-05-03T05:46:01.439Z,17.1205
2023-05-03T05:47:08.232Z,17.2342
2023-05-03T05:48:07.685Z,17.3471
2023-05-03T05:49:11.612Z,17.3632
2023-05-03T05:50:18.836Z,17.1067
2023-05-03T05:51:17.973Z,17.0640
2023-05-03T05:52:21.891Z,17.1590
2023-05-03T05:53:25.791Z,17.2956
2023-05-03T05:54:30.564Z,17.4097
2023-05-03T05:55:34.560Z,17.4276
2023-05-03T05:56:38.465Z,17.1196
2023-05-03T05:57:42.710Z,16.9709
2023-05-03T05:58:46.614Z,17.0786
2023-05-03T05:59:51.733Z,17.2041
2023-05-03T06:00:51.197Z,17.3248
2023-05-03T06:01:55.104Z,17.4144
2023-05-03T06:02:59.241Z,17.2032
2023-05-03T06:04:03.108Z,16.9830
2023-05-03T06:05:08.024Z,17.0613
2023-05-03T06:06:12.012Z,17.2070
2023-05-03T06:07:15.914Z,17.3256
2023-05-03T06:08:19.843Z,17.4140
2023-05-03T06:09:24.959Z,17.2578
2023-05-03T06:10:24.066Z,16.9927
2023-05-03T06:11:27.994Z,17.0112
2023-05-03T06:12:32.127Z,17.1596
2023-05-03T06:13:36.013Z,17.2900
2023-05-03T06:14:46.212Z,17.4089
2023-05-03T06:15:44.409Z,17.3469
2023-05-03T06:16:48.365Z,17.0408
2023-05-03T06:17:52.293Z,16.9818
2023-05-03T06:18:56.189Z,17.1156
2023-05-03T06:20:00.166Z,17.2602
2023-05-03T06:21:04.137Z,17.3750
2023-05-03T06:22:07.996Z,17.4077
2023-05-03T06:23:12.154Z,17.1205
2023-05-03T06:24:16.067Z,16.9754
2023-05-03T06:25:20.128Z,17.0777
2023-05-03T06:26:24.038Z,17.2157
2023-05-03T06:27:27.980Z,17.3599
2023-05-03T06:28:31.892Z,17.4211
2023-05-03T06:29:35.794Z,17.1872
2023-05-03T06:30:39.740Z,16.9858
2023-05-03T06:31:43.655Z,17.0597
2023-05-03T06:32:47.581Z,17.1941
2023-05-03T06:33:51.495Z,17.3247
2023-05-03T06:34:55.722Z,17.4211
2023-05-03T06:35:59.626Z,17.2515
2023-05-03T06:37:03.516Z,17.0310
2023-05-03T06:38:07.448Z,17.0530
2023-05-03T06:39:11.359Z,17.1398
2023-05-03T06:40:15.275Z,17.2633
2023-05-03T06:41:19.190Z,17.3699
2023-05-03T06:42:24.612Z,17.2159
2023-05-03T06:43:25.742Z,17.0327
2023-05-03T06:44:29.626Z,17.0904
2023-05-03T06:45:33.534Z,17.1837
2023-05-03T06:46:37.467Z,17.3014
2023-05-03T06:47:41.649Z,17.4158
2023-05-03T06:48:45.539Z,17.2540
2023-05-03T06:49:49.429Z,17.0054
2023-05-03T06:50:50.549Z,16.9937
2023-05-03T06:51:54.463Z,17.1238
2023-05-03T06:52:58.378Z,17.2578
2023-05-03T06:54:02.310Z,17.3726
2023-05-03T06:55:06.547Z,17.2891
2023-05-03T06:56:10.433Z,17.0557
2023-05-03T06:57:14.357Z,17.0657
2023-05-03T06:58:18.847Z,17.1607
2023-05-03T06:59:22.738Z,17.2680
2023-05-03T07:00:26.636Z,17.3833
2023-05-03T07:01:30.564Z,17.3167
2023-05-03T07:02:34.503Z,17.0902
2023-05-03T07:03:41.456Z,17.0987
2023-05-03T07:04:40.433Z,17.1959
2023-05-03T07:05:44.338Z,17.3130
2023-05-03T07:06:56.042Z,17.4224
2023-05-03T07:07:52.765Z,17.3384
2023-05-03T07:08:56.693Z,17.0388
2023-05-03T07:10:00.783Z,17.0005
2023-05-03T07:11:04.776Z,17.1031
2023-05-03T07:12:08.673Z,17.2262
2023-05-03T07:13:12.686Z,17.3508
2023-05-03T07:14:16.535Z,17.3372
2023-05-03T07:15:20.449Z,17.1007
2023-05-03T07:16:24.362Z,17.0579
2023-05-03T07:17:28.248Z,17.1467
2023-05-03T07:18:32.118Z,17.2629
2023-05-03T07:19:36.054Z,17.3835
2023-05-03T07:20:39.947Z,17.3713
2023-05-03T07:21:43.846Z,17.0924
2023-05-03T07:22:47.741Z,17.0223
2023-05-03T07:23:51.618Z,17.1418
2023-05-03T07:24:55.513Z,17.2575
2023-05-03T07:25:59.421Z,17.3686
2023-05-03T07:27:03.320Z,17.3931
2023-05-03T07:28:07.222Z,17.1227
2023-05-03T07:29:11.119Z,16.9972
2023-05-03T07:30:15.027Z,17.1056
2023-05-03T07:31:18.943Z,17.2484
2023-05-03T07:32:22.940Z,17.3608
2023-05-03T07:33:27.019Z,17.4327
2023-05-03T07:34:30.921Z,17.1943
2023-05-03T07:35:34.828Z,17.0308
2023-05-03T07:36:38.729Z,17.0802
2023-05-03T07:37:42.927Z,17.1859
2023-05-03T07:38:46.850Z,17.2909
2023-05-03T07:39:50.773Z,17.3753
2023-05-03T07:40:54.756Z,17.1423
2023-05-03T07:41:58.633Z,16.9987
2023-05-03T07:43:02.534Z,17.0622
2023-05-03T07:44:06.433Z,17.1903
2023-05-03T07:45:10.325Z,17.3087
2023-05-03T07:46:14.276Z,17.3908
2023-05-03T07:47:18.118Z,17.1861
2023-05-03T07:48:22.019Z,17.0317
2023-05-03T07:49:25.899Z,17.1287
2023-05-03T07:50:29.789Z,17.2602
2023-05-03T07:51:33.721Z,17.4029
2023-05-03T07:52:45.363Z,17.4921
2023-05-03T07:53:38.669Z,17.2599
2023-05-03T07:54:42.588Z,16.9667
2023-05-03T07:55:46.479Z,16.9536
2023-05-03T07:56:50.365Z,17.0920
2023-05-03T07:57:54.451Z,17.2135
2023-05-03T07:59:08.357Z,17.3245
2023-05-03T08:00:03.224Z,17.2684
2023-05-03T08:01:07.270Z,17.0915
2023-05-03T08:02:11.247Z,17.1298
2023-05-03T08:03:15.522Z,17.2451
2023-05-03T08:04:19.969Z,17.3670
2023-05-03T08:05:24.019Z,17.4725
2023-05-03T08:06:27.992Z,17.3603
2023-05-03T08:07:31.856Z,17.0404
2023-05-03T08:08:35.755Z,16.9769
2023-05-03T08:09:39.684Z,17.0722
2023-05-03T08:10:43.570Z,17.2012
2023-05-03T08:11:47.456Z,17.3105
2023-05-03T08:12:51.410Z,17.2934
2023-05-03T08:13:55.290Z,17.0855
2023-05-03T08:14:59.204Z,17.0651
2023-05-03T08:16:03.122Z,17.1532
2023-05-03T08:17:07.044Z,17.2633
2023-05-03T08:18:11.165Z,17.3857
2023-05-03T08:19:15.070Z,17.3272
2023-05-03T08:20:19.008Z,17.0751
2023-05-03T08:21:22.907Z,17.0410
2023-05-03T08:22:26.888Z,17.1412
2023-05-03T08:23:30.871Z,17.2582
2023-05-03T08:24:34.783Z,17.3786
2023-05-03T08:25:38.703Z,17.3394
2023-05-03T08:26:42.710Z,17.0898
2023-05-03T08:27:46.595Z,17.0628
2023-05-03T08:28:50.479Z,17.1694
2023-05-03T08:29:54.400Z,17.2684
2023-05-03T08:30:58.356Z,17.3957
2023-05-03T08:32:02.245Z,17.3733
2023-05-03T08:33:06.250Z,17.0833
2023-05-03T08:34:10.166Z,17.0108
2023-05-03T08:35:14.082Z,17.1227
2023-05-03T08:36:17.948Z,17.2364
2023-05-03T08:37:21.824Z,17.3588
2023-05-03T08:38:25.717Z,17.3806
2023-05-03T08:39:29.621Z,17.0728
2023-05-03T08:40:33.514Z,16.9382
2023-05-03T08:41:37.394Z,17.0557
2023-05-03T08:42:41.284Z,17.2099
2023-05-03T08:43:45.208Z,17.3423
2023-05-03T08:44:49.130Z,17.4209
2023-05-03T08:45:53.038Z,17.1943
2023-05-03T08:46:56.973Z,17.0130
2023-05-03T08:48:00.950Z,17.0829
2023-05-03T08:49:04.857Z,17.1908
2023-05-03T08:50:08.789Z,17.4369
2023-05-03T08:51:12.747Z,18.0277
2023-05-03T08:52:16.689Z,18.3081
2023-05-03T08:53:20.549Z,18.4245
2023-05-03T08:54:24.447Z,18.4665
2023-05-03T08:55:28.385Z,18.4901
2023-05-03T08:56:32.294Z,18.5337
2023-05-03T08:57:36.204Z,18.5758
2023-05-03T08:58:40.102Z,18.6145
2023-05-03T08:59:44.017Z,18.6112
2023-05-03T09:00:48.046Z,18.6183
2023-05-03T09:01:53.521Z,18.6637
2023-05-03T09:02:53.524Z,18.6419
2023-05-03T09:03:57.506Z,18.6436
2023-05-03T09:05:01.691Z,18.6841
2023-05-03T09:06:05.727Z,18.6979
2023-05-03T09:07:09.673Z,18.7042
2023-05-03T09:08:13.589Z,18.7376
2023-05-03T09:09:17.478Z,18.7569
2023-05-03T09:10:21.682Z,18.7536
2023-05-03T09:11:25.574Z,18.7585
2023-05-03T09:12:29.485Z,18.7767
2023-05-03T09:13:33.476Z,18.7725
2023-05-03T09:14:37.350Z,18.7943
2023-05-03T09:15:41.232Z,18.7747
2023-05-03T09:16:45.189Z,18.7769
2023-05-03T09:17:49.212Z,18.7809
2023-05-03T09:18:53.073Z,18.8157
2023-05-03T09:19:57.040Z,18.8068
2023-05-03T09:21:00.911Z,18.8001
2023-05-03T09:22:04.801Z,18.8239
2023-05-03T09:23:08.694Z,18.7629
2023-05-03T09:24:12.585Z,18.1087
2023-05-03T09:25:16.485Z,17.2769
2023-05-03T09:26:20.495Z,16.7079
2023-05-03T09:27:24.349Z,16.5530
2023-05-03T09:28:28.284Z,16.7351
2023-05-03T09:29:32.196Z,17.0199
2023-05-03T09:30:36.066Z,17.2206
2023-05-03T09:31:40.033Z,17.2805
2023-05-03T09:32:44.089Z,17.0831
2023-05-03T09:33:47.961Z,17.0677
2023-05-03T09:34:51.860Z,17.1619
2023-05-03T09:35:55.749Z,17.2693
2023-05-03T09:36:59.635Z,17.3828
2023-05-03T09:38:03.540Z,17.3704
2023-05-03T09:39:07.447Z,17.3267
2023-05-03T09:40:11.356Z,17.9536
2023-05-03T09:41:15.233Z,18.3299
2023-05-03T09:42:19.150Z,18.5402
2023-05-03T09:43:23.057Z,18.6454
2023-05-03T09:44:27.144Z,18.7482
2023-05-03T09:45:31.073Z,18.7876
2023-05-03T09:46:35.078Z,18.7351
2023-05-03T09:47:38.995Z,18.7507
2023-05-03T09:48:42.893Z,18.7809
2023-05-03T09:49:44.075Z,18.8151
2023-05-03T09:50:47.994Z,18.8007
2023-05-03T09:51:52.202Z,18.8335
2023-05-03T09:52:56.106Z,18.8016
2023-05-03T09:54:03.241Z,18.7554
2023-05-03T09:55:02.041Z,17.9785
2023-05-03T09:56:06.160Z,17.2073
2023-05-03T09:57:26.094Z,16.6872
2023-05-03T09:58:15.072Z,16.5706
2023-05-03T09:59:18.983Z,16.6932
2023-05-03T10:00:22.862Z,16.9204
2023-05-03T10:01:26.768Z,17.1165
2023-05-03T10:02:30.690Z,17.1877
2023-05-03T10:03:34.635Z,17.2649
2023-05-03T10:04:38.610Z,17.3713
2023-05-03T10:05:42.121Z,17.4983
2023-05-03T10:06:46.170Z,17.6318
2023-05-03T10:07:50.131Z,17.6592
2023-05-03T10:08:54.061Z,17.3668
2023-05-03T10:09:57.985Z,17.1935
2023-05-03T10:11:01.971Z,17.8984
2023-05-03T10:12:06.013Z,18.3479
2023-05-03T10:13:12.003Z,18.5713
2023-05-03T10:14:11.003Z,18.6956
2023-05-03T10:15:14.890Z,18.7898
2023-05-03T10:16:18.880Z,18.8299
2023-05-03T10:17:29.093Z,18.8417
2023-05-03T10:18:27.397Z,18.8255
2023-05-03T10:19:31.506Z,18.8128
2023-05-03T10:20:35.412Z,18.8466
2023-05-03T10:21:39.307Z,18.8644
2023-05-03T10:22:43.168Z,18.8873
2023-05-03T10:23:47.074Z,18.9127
2023-05-03T10:24:50.970Z,18.7347
2023-05-03T10:25:55.136Z,18.3268
2023-05-03T10:26:59.029Z,17.6970
2023-05-03T10:28:02.915Z,17.0186
2023-05-03T10:29:06.824Z,16.6819
2023-05-03T10:30:10.740Z,16.6576
2023-05-03T10:31:14.674Z,16.8121
2023-05-03T10:32:18.550Z,17.0439
2023-05-03T10:33:22.433Z,17.2075
2023-05-03T10:34:26.702Z,17.1345
2023-05-03T10:35:30.594Z,17.1031
2023-05-03T10:36:42.228Z,17.1888
2023-05-03T10:37:39.288Z,17.2939
2023-05-03T10:38:43.220Z,17.3988
2023-05-03T10:39:47.113Z,17.4249
2023-05-03T10:40:51.055Z,17.4456
2023-05-03T10:41:54.981Z,18.0673
2023-05-03T10:42:58.902Z,18.3837
2023-05-03T10:44:02.797Z,18.5580
2023-05-03T10:45:06.880Z,18.6668
2023-05-03T10:46:10.846Z,18.7004
2023-05-03T10:47:14.775Z,18.7307
2023-05-03T10:48:18.642Z,18.7649
2023-05-03T10:49:22.553Z,18.7805
2023-05-03T10:50:26.464Z,18.8019
2023-05-03T10:51:30.368Z,18.8441
2023-05-03T10:52:34.286Z,18.8626
2023-05-03T10:53:38.242Z,18.8793
2023-05-03T10:54:42.465Z,18.8822
2023-05-03T10:55:46.390Z,18.7562
2023-05-03T10:56:50.292Z,17.8929
2023-05-03T10:57:54.225Z,17.1423
2023-05-03T10:58:58.148Z,16.6805
2023-05-03T11:00:02.389Z,16.5800
2023-05-03T11:01:06.500Z,16.7092
2023-05-03T11:02:10.427Z,16.9436
2023-05-03T11:03:14.361Z,17.1659
2023-05-03T11:04:18.268Z,17.1550
2023-05-03T11:05:22.169Z,17.0677
2023-05-03T11:06:26.315Z,17.1572
2023-05-03T11:07:30.259Z,17.2716
2023-05-03T11:08:34.174Z,17.3855
2023-05-03T11:09:38.102Z,17.4825
2023-05-03T11:10:42.036Z,17.2740
2023-05-03T11:11:45.950Z,17.5782
2023-05-03T11:12:49.876Z,18.2320
2023-05-03T11:13:53.817Z,18.5878
2023-05-03T11:14:57.710Z,18.7861
2023-05-03T11:16:01.640Z,18.8960
2023-05-03T11:17:05.536Z,18.9730
2023-05-03T11:18:09.528Z,18.9296
2023-05-03T11:19:13.514Z,18.9240
2023-05-03T11:20:17.396Z,18.9561
2023-05-03T11:21:18.228Z,18.9921
2023-05-03T11:22:18.515Z,18.9591
2023-05-03T11:23:20.331Z,18.9505
2023-05-03T11:24:29.019Z,18.9862
2023-05-03T11:25:31.666Z,19.0424
2023-05-03T11:26:37.469Z,19.0445
2023-05-03T11:27:38.305Z,18.8671
2023-05-03T11:28:39.112Z,18.0212
2023-05-03T11:29:43.034Z,17.3227
2023-05-03T11:30:46.985Z,16.8083
2023-05-03T11:31:50.973Z,16.6420
2023-05-03T11:32:54.892Z,16.6959
2023-05-03T11:33:58.836Z,16.9068
2023-05-03T11:35:03.079Z,17.1271
2023-05-03T11:36:07.155Z,17.1530
2023-05-03T11:37:11.050Z,17.0655
2023-05-03T11:38:14.927Z,17.1380
2023-05-03T11:39:20.692Z,17.2313
2023-05-03T11:40:19.610Z,17.3469
2023-05-03T11:41:23.516Z,17.4458
2023-05-03T11:42:27.419Z,17.3252
2023-05-03T11:43:31.367Z,17.0239
2023-05-03T11:44:35.359Z,16.9939
2023-05-03T11:45:39.317Z,17.0911
2023-05-03T11:46:43.572Z,17.2101
2023-05-03T11:47:47.521Z,17.3414
2023-05-03T11:48:51.429Z,17.3441
2023-05-03T11:49:55.565Z,17.0955
2023-05-03T11:50:59.486Z,17.0660
2023-05-03T11:52:03.482Z,17.1732
2023-05-03T11:53:07.341Z,17.7662
2023-05-03T11:54:24.187Z,18.3290
2023-05-03T11:55:15.705Z,18.6203
2023-05-03T11:56:19.614Z,18.7616
2023-05-03T11:57:23.544Z,18.8252
2023-05-03T11:58:27.479Z,18.8506
2023-05-03T11:59:31.381Z,18.9029
2023-05-03T12:00:35.264Z,18.9436
2023-05-03T12:01:39.155Z,18.9311
2023-05-03T12:02:43.217Z,18.9414
2023-05-03T12:03:47.340Z,18.9770
2023-05-03T12:04:52.274Z,18.9701
2023-05-03T12:05:56.685Z,18.9487
2023-05-03T12:07:02.092Z,18.9652
2023-05-03T12:08:01.852Z,18.9735
2023-05-03T12:09:06.432Z,18.9358
2023-05-03T12:10:16.483Z,18.9866
2023-05-03T12:11:17.486Z,19.0172
2023-05-03T12:12:19.856Z,18.9969
2023-05-03T12:13:20.405Z,18.9995
2023-05-03T12:14:24.660Z,19.0202
2023-05-03T12:15:29.978Z,18.9894
2023-05-03T12:16:28.752Z,18.9532
2023-05-03T12:17:32.894Z,19.0068
2023-05-03T12:18:39.262Z,18.9541
2023-05-03T12:19:39.253Z,18.9568
2023-05-03T12:21:29.309Z,19.0117
2023-05-03T12:22:01.002Z,19.0005
2023-05-03T12:22:56.351Z,18.9743
2023-05-03T12:23:57.220Z,18.9993
2023-05-03T12:25:03.994Z,19.0664
2023-05-03T12:26:05.331Z,19.0578
2023-05-03T12:27:04.326Z,19.0032
2023-05-03T12:28:19.729Z,19.0210
2023-05-03T12:29:12.832Z,19.0039
2023-05-03T12:30:18.032Z,18.9699
2023-05-03T12:31:17.904Z,18.9277
2023-05-03T12:32:16.911Z,18.5774
2023-05-03T12:33:22.498Z,17.7702
2023-05-03T12:34:33.682Z,17.1145
2023-05-03T12:35:27.940Z,16.6781
2023-05-03T12:36:27.014Z,16.6026
2023-05-03T12:37:33.414Z,16.7386
2023-05-03T12:38:32.304Z,16.9616
2023-05-03T12:39:39.585Z,17.1338
2023-05-03T12:40:39.504Z,17.1531
2023-05-03T12:42:46.585Z,17.2075
2023-05-03T12:43:52.548Z,17.3063
2023-05-03T12:44:53.462Z,17.4466
2023-05-03T12:46:07.371Z,17.5447
2023-05-03T12:46:59.764Z,17.3185
2023-05-03T12:47:59.624Z,16.9922
2023-05-03T12:49:06.587Z,16.9302
2023-05-03T12:51:19.241Z,17.1788
2023-05-03T12:52:36.239Z,17.2990
2023-05-03T12:53:17.970Z,17.3456